Hales Eddy, New York
Current Conditions -  °F | °C
As of 8:15 AM on Thursday 27 Nov 2014 (Local Time) from KMSV Reporting Station
Broken Clouds Broken Clouds  
Wind Chill: -5°   Ceiling: 9500
Heat Index: -2°   Visibility: 10mi
Dew Point: -4°   Wind: 5mph
Humidity: 86%   Direction: 280°W
Pressure: 29.93"   Gusts: NA
Location:  41.9099°N, 75.1815°W
Report Text: KMSV 271315Z 28004KT 10SM FEW042 SCT050 BKN095 M02/M04 A2993 RMK AO1 4/008
Loading
Personal Weather Stations






























Interactive Weather Map New forecast layout! Learn more

10-Day Weather Forecast

Advertisements
Track Severe Weather on mobile